Terminal Aerodrome Forecast
Issued by NWS Des Moines, IA

Home | Current Version | Previous Version | Text Only | Print | Product List | Glossary On
Versions: 1 2 3 4 5 6 7 8 9 10 11 12 13 14 15 16 17 18 19 20 21 22 23 24 25 26 27 28 29
000
FTUS43 KDMX 260302 AAA
TAFDSM
TAF AMD
KDSM 260302Z 2603/2624 36008KT P6SM OVC018
     FM260500 01008KT P6SM SCT014 BKN020
     FM260800 19008KT P6SM BKN024
     FM261400 30010KT P6SM SCT024 BKN035
     FM261700 31015KT P6SM SCT035 BKN080=

USA.gov is the U.S. government's official web portal to all federal, state and local government web resources and services.